createdAt,value
2018-04-11T00:00:02.443Z,84.03
2018-04-11T00:02:29.977Z,84.00
2018-04-11T00:04:57.526Z,83.11
2018-04-11T00:07:25.476Z,83.23
2018-04-11T00:09:53.061Z,83.38
2018-04-11T00:12:21.803Z,83.38
2018-04-11T00:14:49.343Z,83.56
2018-04-11T00:17:17.249Z,83.82
2018-04-11T00:19:44.806Z,84.35
2018-04-11T00:22:12.356Z,83.72
2018-04-11T00:24:39.956Z,83.61
2018-04-11T00:27:07.595Z,84.07
2018-04-11T00:29:35.185Z,84.55
2018-04-11T00:32:02.742Z,84.73
2018-04-11T00:34:30.280Z,84.88
2018-04-11T00:36:57.844Z,84.88
2018-04-11T00:39:25.420Z,84.50
2018-04-11T00:41:52.965Z,83.87
2018-04-11T00:44:21.472Z,84.41
2018-04-11T00:46:49.282Z,84.61
2018-04-11T00:49:17.080Z,84.25
2018-04-11T00:51:45.562Z,84.52
2018-04-11T00:54:13.103Z,84.78
2018-04-11T00:56:40.635Z,84.87
2018-04-11T00:59:08.219Z,84.97
2018-04-11T01:01:35.754Z,84.81
2018-04-11T01:04:03.291Z,84.59
2018-04-11T01:06:31.084Z,84.39
2018-04-11T01:08:58.631Z,84.42
2018-04-11T01:11:26.280Z,83.82
2018-04-11T01:13:53.913Z,84.04
2018-04-11T01:16:21.468Z,84.21
2018-04-11T01:18:49.030Z,84.17
2018-04-11T01:21:16.548Z,84.18
2018-04-11T01:23:44.115Z,84.24
2018-04-11T01:26:11.653Z,84.24
2018-04-11T01:28:39.194Z,84.84
2018-04-11T01:31:06.766Z,84.94
2018-04-11T01:33:34.628Z,84.93
2018-04-11T01:36:02.422Z,85.04
2018-04-11T01:38:31.041Z,85.10
2018-04-11T01:40:58.573Z,85.10
2018-04-11T01:43:26.140Z,85.22
2018-04-11T01:45:53.704Z,85.27
2018-04-11T01:48:21.253Z,85.69
2018-04-11T01:50:48.795Z,85.64
2018-04-11T01:53:16.312Z,85.86
2018-04-11T01:55:43.883Z,86.18
2018-04-11T01:58:11.419Z,86.07
2018-04-11T02:00:40.170Z,86.58
2018-04-11T02:03:07.764Z,86.49
2018-04-11T02:05:35.529Z,86.59
2018-04-11T02:08:03.100Z,86.39
2018-04-11T02:10:31.659Z,86.37
2018-04-11T02:12:59.186Z,86.12
2018-04-11T02:15:27.543Z,85.90
2018-04-11T02:17:56.733Z,85.12
2018-04-11T02:20:26.863Z,85.17
2018-04-11T02:22:54.494Z,85.57
2018-04-11T02:25:22.085Z,85.59
2018-04-11T02:27:49.771Z,86.08
2018-04-11T02:30:17.341Z,87.04
2018-04-11T02:32:45.247Z,86.86
2018-04-11T02:35:13.218Z,86.49
2018-04-11T02:37:42.466Z,85.97
2018-04-11T02:40:10.012Z,85.85
2018-04-11T02:42:38.573Z,85.46
2018-04-11T02:45:06.396Z,85.78
2018-04-11T02:47:35.930Z,85.18
2018-04-11T02:50:03.576Z,86.43
2018-04-11T02:52:31.107Z,86.75
2018-04-11T02:54:58.653Z,86.58
2018-04-11T02:57:26.747Z,86.66
2018-04-11T02:59:54.329Z,86.40
2018-04-11T03:02:21.906Z,86.08
2018-04-11T03:04:49.459Z,86.51
2018-04-11T03:07:17.076Z,86.90
2018-04-11T03:09:44.634Z,86.18
2018-04-11T03:12:12.216Z,85.87
2018-04-11T03:14:39.784Z,86.65
2018-04-11T03:17:08.284Z,87.09
2018-04-11T03:19:36.196Z,87.20
2018-04-11T03:22:03.985Z,87.28
2018-04-11T03:24:31.557Z,86.55
2018-04-11T03:26:59.135Z,86.85
2018-04-11T03:29:26.660Z,87.13
2018-04-11T03:31:54.197Z,87.36
2018-04-11T03:34:21.734Z,88.11
2018-04-11T03:36:49.601Z,88.35
2018-04-11T03:39:17.164Z,87.91
2018-04-11T03:41:44.713Z,87.93
2018-04-11T03:44:12.344Z,86.92
2018-04-11T03:46:39.893Z,86.71
2018-04-11T03:49:07.833Z,87.39
2018-04-11T03:51:35.421Z,87.49
2018-04-11T03:54:03.146Z,86.93
2018-04-11T03:56:31.366Z,87.02
2018-04-11T03:58:58.919Z,86.73
2018-04-11T04:01:26.482Z,86.91
2018-04-11T04:03:56.452Z,87.04
2018-04-11T04:06:24.040Z,86.79
2018-04-11T04:08:51.582Z,86.42
2018-04-11T04:14:21.238Z,86.85
2018-04-11T04:17:00.581Z,87.05
2018-04-11T04:19:33.966Z,87.35
2018-04-11T04:22:01.539Z,87.06
2018-04-11T04:24:29.967Z,87.38
2018-04-11T04:26:57.512Z,87.30
2018-04-11T04:29:25.128Z,87.16
2018-04-11T04:31:52.684Z,86.93
2018-04-11T04:34:20.250Z,86.60
2018-04-11T04:36:47.840Z,85.85
2018-04-11T04:39:15.374Z,85.52
2018-04-11T04:41:44.508Z,85.82
2018-04-11T04:44:12.152Z,85.11
2018-04-11T04:46:40.310Z,84.76
2018-04-11T04:49:07.808Z,84.78
2018-04-11T04:51:36.468Z,85.67
2018-04-11T04:54:04.077Z,84.82
2018-04-11T04:56:31.662Z,84.86
2018-04-11T04:58:59.210Z,83.97
2018-04-11T05:01:26.817Z,84.41
2018-04-11T05:03:54.363Z,84.13
2018-04-11T05:06:21.996Z,83.84
2018-04-11T05:08:49.578Z,83.20
2018-04-11T05:11:17.136Z,82.71
2018-04-11T05:13:44.671Z,81.77
2018-04-11T05:16:12.261Z,81.40
2018-04-11T05:18:41.129Z,80.52
2018-04-11T05:21:09.585Z,80.42
2018-04-11T05:23:37.234Z,80.15
2018-04-11T05:26:06.120Z,79.51
2018-04-11T05:28:33.791Z,80.23
2018-04-11T05:31:01.372Z,80.02
2018-04-11T05:33:29.039Z,80.19
2018-04-11T05:35:57.178Z,79.33
2018-04-11T05:38:24.761Z,78.38
2018-04-11T05:40:52.343Z,77.57
2018-04-11T05:43:20.044Z,77.18
2018-04-11T05:45:47.673Z,74.31
2018-04-11T05:48:15.237Z,72.13
2018-04-11T05:50:42.788Z,71.30
2018-04-11T05:53:10.864Z,70.93
2018-04-11T05:55:38.437Z,70.75
2018-04-11T05:58:05.975Z,69.47
2018-04-11T06:00:35.014Z,68.22
2018-04-11T06:03:02.578Z,67.45
2018-04-11T06:05:33.319Z,67.74
2018-04-11T06:08:01.176Z,68.08
2018-04-11T06:10:29.924Z,68.54
2018-04-11T06:12:59.685Z,68.96
2018-04-11T06:15:27.773Z,69.41
2018-04-11T06:17:55.367Z,68.45
2018-04-11T06:20:22.925Z,69.84
2018-04-11T06:22:50.726Z,67.91
2018-04-11T06:25:18.262Z,67.31
2018-04-11T06:27:45.811Z,68.02
2018-04-11T06:30:13.486Z,67.75
2018-04-11T06:32:46.633Z,67.56
2018-04-11T06:35:14.492Z,67.36
2018-04-11T06:37:44.344Z,67.11
2018-04-11T06:40:12.029Z,66.99
2018-04-11T06:42:44.007Z,66.74
2018-04-11T06:45:12.318Z,66.79
2018-04-11T06:47:43.564Z,66.38
2018-04-11T06:50:14.383Z,66.28
2018-04-11T06:52:45.944Z,65.68
2018-04-11T06:55:14.846Z,67.85
2018-04-11T06:57:43.749Z,69.09
2018-04-11T07:00:11.410Z,68.53
2018-04-11T07:02:38.980Z,67.54
2018-04-11T07:05:06.803Z,66.35
2018-04-11T07:07:34.339Z,66.78
2018-04-11T07:10:01.897Z,67.79
2018-04-11T07:12:29.443Z,67.79
2018-04-11T07:14:57.001Z,67.88
2018-04-11T07:17:24.544Z,67.59
2018-04-11T07:19:53.201Z,67.84
2018-04-11T07:22:20.967Z,67.42
2018-04-11T07:24:48.519Z,68.12
2018-04-11T07:27:16.611Z,67.59
2018-04-11T07:29:44.373Z,67.36
2018-04-11T07:32:12.132Z,69.69
2018-04-11T07:34:43.155Z,69.02
2018-04-11T07:37:10.817Z,69.00
2018-04-11T07:39:39.171Z,69.92
2018-04-11T07:42:06.937Z,69.23
2018-04-11T07:44:34.949Z,68.71
2018-04-11T07:47:02.671Z,66.22
2018-04-11T07:49:31.133Z,68.49
2018-04-11T07:51:59.805Z,71.71
2018-04-11T07:54:27.426Z,67.17
2018-04-11T07:56:54.920Z,68.71
2018-04-11T07:59:22.476Z,65.99
2018-04-11T08:01:50.092Z,66.22
2018-04-11T08:04:17.899Z,64.97
2018-04-11T08:06:45.471Z,64.45
2018-04-11T08:09:13.516Z,66.90
2018-04-11T08:11:42.593Z,65.46
2018-04-11T08:14:11.927Z,65.50
2018-04-11T08:16:40.169Z,65.65
2018-04-11T08:19:08.049Z,64.28
2018-04-11T08:21:36.351Z,63.40
2018-04-11T08:24:03.361Z,65.23
2018-04-11T08:26:30.917Z,65.82
2018-04-11T08:28:58.505Z,65.67
2018-04-11T08:31:26.766Z,67.34
2018-04-11T08:33:54.354Z,65.06
2018-04-11T08:36:22.016Z,63.59
2018-04-11T08:38:49.570Z,62.00
2018-04-11T08:41:17.641Z,64.21
2018-04-11T08:43:46.629Z,61.66
2018-04-11T08:46:14.174Z,62.22
2018-04-11T08:48:41.713Z,61.25
2018-04-11T08:51:09.419Z,61.45
2018-04-11T08:53:37.832Z,61.86
2018-04-11T08:56:05.425Z,62.35
2018-04-11T08:58:34.053Z,61.47
2018-04-11T09:01:01.607Z,62.62
2018-04-11T09:03:29.227Z,62.48
2018-04-11T09:05:58.480Z,61.45
2018-04-11T09:08:26.076Z,60.81
2018-04-11T09:10:53.646Z,60.50
2018-04-11T09:13:21.420Z,61.01
2018-04-11T09:15:49.024Z,59.07
2018-04-11T09:18:16.587Z,58.88
2018-04-11T09:20:45.211Z,58.79
2018-04-11T09:23:13.597Z,58.46
2018-04-11T09:25:41.281Z,58.31
2018-04-11T09:28:08.814Z,58.55
2018-04-11T09:30:38.986Z,57.60
2018-04-11T09:33:07.339Z,56.83
2018-04-11T09:35:35.124Z,57.57
2018-04-11T09:38:02.666Z,56.45
2018-04-11T09:40:30.221Z,55.31
2018-04-11T09:42:57.780Z,56.87
2018-04-11T09:45:25.438Z,55.56
2018-04-11T09:47:54.139Z,54.68
2018-04-11T09:50:21.693Z,53.60
2018-04-11T09:52:49.234Z,54.43
2018-04-11T09:55:16.785Z,54.59
2018-04-11T09:57:44.338Z,53.60
2018-04-11T10:00:11.887Z,54.74
2018-04-11T10:02:39.934Z,55.42
2018-04-11T10:05:07.914Z,52.58
2018-04-11T10:07:40.387Z,52.95
2018-04-11T10:10:08.522Z,53.85
2018-04-11T10:12:37.179Z,52.75
2018-04-11T10:15:06.995Z,51.50
2018-04-11T10:17:35.579Z,53.43
2018-04-11T10:20:10.413Z,51.54
2018-04-11T10:22:41.763Z,52.14
2018-04-11T10:25:09.794Z,51.11
2018-04-11T10:27:37.716Z,48.29
2018-04-11T10:30:08.725Z,49.29
2018-04-11T10:32:36.706Z,49.15
2018-04-11T10:35:04.392Z,47.20
2018-04-11T10:37:32.531Z,47.42
2018-04-11T10:40:05.323Z,46.42
2018-04-11T10:42:35.564Z,45.33
2018-04-11T10:45:11.341Z,47.94
2018-04-11T10:47:42.836Z,47.69
2018-04-11T10:50:15.700Z,42.54
2018-04-11T10:52:45.499Z,43.32
2018-04-11T10:55:13.946Z,45.82
2018-04-11T10:57:41.528Z,46.12
2018-04-11T11:00:09.563Z,44.90
2018-04-11T11:02:37.288Z,38.36
2018-04-11T11:05:06.415Z,36.78
2018-04-11T11:07:35.345Z,41.12
2018-04-11T11:10:03.071Z,40.12
2018-04-11T11:12:31.159Z,37.23
2018-04-11T11:14:59.235Z,36.07
2018-04-11T11:17:27.762Z,35.44
2018-04-11T11:20:02.338Z,36.73
2018-04-11T11:22:33.552Z,38.40
2018-04-11T11:25:01.113Z,37.39
2018-04-11T11:27:28.701Z,37.12
2018-04-11T11:29:56.985Z,35.20
2018-04-11T11:32:24.533Z,37.49
2018-04-11T11:34:52.097Z,35.28
2018-04-11T11:37:20.067Z,34.25
2018-04-11T11:39:48.536Z,30.88
2018-04-11T11:42:16.192Z,30.46
2018-04-11T11:44:44.095Z,28.95
2018-04-11T11:47:11.708Z,27.18
2018-04-11T11:49:43.369Z,26.66
2018-04-11T11:52:10.929Z,25.14
2018-04-11T11:54:39.739Z,29.15
2018-04-11T11:57:07.354Z,28.72
2018-04-11T11:59:37.175Z,28.28
2018-04-11T12:02:04.913Z,27.05
2018-04-11T12:04:32.843Z,25.33
2018-04-11T12:07:00.473Z,24.73
2018-04-11T12:09:28.781Z,23.79
2018-04-11T12:11:56.395Z,23.85
2018-04-11T12:14:23.952Z,24.10
2018-04-11T12:16:51.502Z,24.78
2018-04-11T12:19:19.091Z,25.44
2018-04-11T12:21:49.007Z,26.45
2018-04-11T12:24:17.340Z,26.59
2018-04-11T12:26:44.978Z,25.12
2018-04-11T12:29:12.702Z,25.05
2018-04-11T12:31:40.282Z,25.52
2018-04-11T12:34:08.676Z,24.03
2018-04-11T12:36:36.221Z,23.99
2018-04-11T12:39:03.865Z,23.71
2018-04-11T12:41:31.643Z,26.61
2018-04-11T12:43:59.176Z,25.81
2018-04-11T12:46:26.736Z,23.24
2018-04-11T12:48:54.266Z,23.16
2018-04-11T12:51:21.812Z,24.83
2018-04-11T12:53:51.711Z,25.79
2018-04-11T12:56:19.274Z,26.27
2018-04-11T12:58:46.854Z,25.15
2018-04-11T13:01:14.412Z,25.04
2018-04-11T13:03:42.011Z,27.21
2018-04-11T13:06:09.660Z,29.08
2018-04-11T13:08:37.383Z,28.52
2018-04-11T13:11:04.942Z,26.68
2018-04-11T13:13:32.468Z,27.88
2018-04-11T13:16:00.009Z,26.74
2018-04-11T13:18:28.425Z,26.53
2018-04-11T13:20:55.960Z,25.16
2018-04-11T13:23:23.722Z,24.17
2018-04-11T13:25:52.623Z,25.04
2018-04-11T13:28:20.178Z,26.53
2018-04-11T13:30:48.603Z,28.47
2018-04-11T13:33:16.248Z,27.16
2018-04-11T13:35:43.794Z,26.29
2018-04-11T13:38:12.051Z,25.83
2018-04-11T13:40:41.718Z,26.98
2018-04-11T13:43:09.282Z,26.77
2018-04-11T13:45:37.148Z,26.60
2018-04-11T13:48:04.738Z,24.48
2018-04-11T13:50:32.316Z,26.95
2018-04-11T13:52:59.870Z,24.92
2018-04-11T13:55:27.432Z,24.96
2018-04-11T13:57:56.914Z,23.95
2018-04-11T14:00:24.504Z,25.32
2018-04-11T14:02:53.217Z,25.10
2018-04-11T14:05:22.371Z,25.73
2018-04-11T14:08:00.262Z,25.83
2018-04-11T14:10:28.125Z,28.49
2018-04-11T14:12:56.881Z,26.25
2018-04-11T14:15:24.467Z,24.79
2018-04-11T14:17:53.087Z,27.59
2018-04-11T14:20:22.936Z,28.58
2018-04-11T14:22:54.400Z,25.98
2018-04-11T14:25:22.324Z,24.19
2018-04-11T14:27:52.461Z,25.00
2018-04-11T14:30:20.035Z,24.92
2018-04-11T14:32:49.388Z,25.09
2018-04-11T14:35:18.070Z,24.93
2018-04-11T14:37:53.274Z,27.40
2018-04-11T14:40:21.497Z,27.23
2018-04-11T14:42:56.746Z,26.62
2018-04-11T14:45:24.680Z,28.46
2018-04-11T14:47:57.117Z,28.23
2018-04-11T14:50:25.141Z,28.57
2018-04-11T14:52:56.458Z,29.91
2018-04-11T14:55:24.430Z,30.42
2018-04-11T14:57:53.643Z,31.03
2018-04-11T15:00:21.203Z,28.27
2018-04-11T15:02:48.790Z,27.05
2018-04-11T15:05:16.317Z,27.62
2018-04-11T15:07:43.860Z,27.51
2018-04-11T15:10:11.445Z,28.76
2018-04-11T15:12:39.157Z,30.02
2018-04-11T15:15:06.705Z,30.62
2018-04-11T15:17:35.173Z,29.54
2018-04-11T15:20:03.511Z,27.98
2018-04-11T15:22:31.304Z,26.78
2018-04-11T15:24:58.863Z,26.55
2018-04-11T15:27:27.369Z,26.72
2018-04-11T15:29:54.989Z,30.55
2018-04-11T15:32:22.548Z,28.56
2018-04-11T15:34:50.118Z,27.82
2018-04-11T15:37:17.727Z,27.98
2018-04-11T15:39:47.138Z,26.97
2018-04-11T15:42:14.887Z,27.40
2018-04-11T15:44:42.666Z,26.00
2018-04-11T15:47:10.344Z,25.89
2018-04-11T15:49:40.688Z,27.83
2018-04-11T15:52:08.852Z,29.76
2018-04-11T15:54:36.547Z,30.61
2018-04-11T15:57:04.801Z,28.81
2018-04-11T15:59:32.726Z,29.03
2018-04-11T16:02:00.586Z,28.98
2018-04-11T16:04:28.175Z,31.59
2018-04-11T16:06:55.787Z,30.03
2018-04-11T16:09:25.396Z,29.77
2018-04-11T16:11:55.101Z,29.73
2018-04-11T16:14:22.777Z,28.19
2018-04-11T16:16:52.983Z,28.31
2018-04-11T16:19:22.577Z,30.46
2018-04-11T16:21:50.271Z,31.26
2018-04-11T16:24:18.487Z,33.18
2018-04-11T16:26:46.044Z,33.22
2018-04-11T16:29:16.738Z,34.87
2018-04-11T16:31:44.501Z,34.79
2018-04-11T16:34:13.146Z,35.92
2018-04-11T16:36:40.676Z,37.21
2018-04-11T16:39:08.519Z,37.08
2018-04-11T16:41:36.102Z,37.07
2018-04-11T16:44:03.718Z,37.70
2018-04-11T16:46:35.286Z,39.58
2018-04-11T16:49:03.061Z,40.42
2018-04-11T16:51:31.036Z,41.84
2018-04-11T16:53:59.219Z,44.66
2018-04-11T16:56:26.818Z,46.25
2018-04-11T16:58:54.372Z,47.51
2018-04-11T17:01:22.240Z,49.77
2018-04-11T17:03:51.101Z,50.15
2018-04-11T17:06:18.691Z,50.91
2018-04-11T17:08:46.946Z,50.29
2018-04-11T17:11:14.742Z,50.99
2018-04-11T17:13:43.668Z,51.74
2018-04-11T17:16:11.396Z,52.64
2018-04-11T17:18:45.271Z,54.78
2018-04-11T17:21:24.694Z,54.98
2018-04-11T17:24:04.037Z,54.19
2018-04-11T17:26:43.452Z,55.19
2018-04-11T17:29:23.032Z,56.54
2018-04-11T17:31:51.284Z,57.25
2018-04-11T17:34:18.890Z,58.45
2018-04-11T17:36:46.461Z,58.78
2018-04-11T17:39:14.228Z,58.96
2018-04-11T17:41:42.111Z,59.34
2018-04-11T17:44:09.737Z,58.93
2018-04-11T17:46:37.367Z,61.26
2018-04-11T17:49:04.947Z,61.03
2018-04-11T17:51:32.663Z,61.72
2018-04-11T17:54:00.290Z,61.83
2018-04-11T17:56:27.844Z,61.58
2018-04-11T17:58:55.464Z,61.06
2018-04-11T18:01:23.071Z,60.27
2018-04-11T18:03:52.936Z,61.35
2018-04-11T18:06:23.711Z,61.48
2018-04-11T18:11:30.946Z,62.88
2018-04-11T18:14:06.544Z,63.29
2018-04-11T18:16:38.119Z,64.23
2018-04-11T18:19:06.158Z,64.48
2018-04-11T18:21:36.890Z,64.77
2018-04-11T18:24:06.887Z,63.57
2018-04-11T18:26:34.606Z,64.16
2018-04-11T18:29:06.251Z,64.05
2018-04-11T18:31:34.116Z,64.21
2018-04-11T18:34:02.093Z,64.71
2018-04-11T18:36:29.915Z,64.93
2018-04-11T18:39:00.499Z,65.95
2018-04-11T18:41:28.033Z,66.39
2018-04-11T18:44:00.048Z,66.30
2018-04-11T18:49:00.110Z,67.11
2018-04-11T18:51:32.254Z,67.03
2018-04-11T18:54:01.434Z,67.36
2018-04-11T18:56:29.500Z,67.79
2018-04-11T18:58:57.051Z,67.91
2018-04-11T19:01:24.629Z,67.98
2018-04-11T19:03:52.864Z,68.25
2018-04-11T19:06:21.091Z,68.20
2018-04-11T19:08:48.867Z,68.46
2018-04-11T19:11:16.403Z,68.84
2018-04-11T19:13:47.348Z,68.95
2018-04-11T19:16:14.909Z,69.04
2018-04-11T19:18:44.815Z,68.85
2018-04-11T19:21:12.696Z,68.72
2018-04-11T19:23:41.009Z,69.35
2018-04-11T19:26:08.717Z,69.86
2018-04-11T19:28:37.608Z,70.37
2018-04-11T19:31:05.174Z,70.97
2018-04-11T19:33:33.489Z,70.88
2018-04-11T19:36:02.816Z,70.73
2018-04-11T19:38:30.698Z,70.83
2018-04-11T19:40:58.260Z,71.28
2018-04-11T19:43:25.928Z,71.27
2018-04-11T19:45:53.536Z,71.66
2018-04-11T19:48:21.080Z,71.80
2018-04-11T19:50:48.653Z,71.83
2018-04-11T19:53:16.302Z,71.94
2018-04-11T19:55:43.856Z,71.71
2018-04-11T19:58:11.417Z,71.91
2018-04-11T20:00:39.380Z,71.65
2018-04-11T20:03:07.258Z,71.95
2018-04-11T20:05:35.274Z,72.32
2018-04-11T20:08:05.541Z,71.89
2018-04-11T20:10:33.352Z,71.94
2018-04-11T20:13:00.902Z,72.43
2018-04-11T20:15:28.868Z,72.56
2018-04-11T20:17:56.414Z,72.46
2018-04-11T20:20:23.967Z,72.03
2018-04-11T20:22:51.548Z,72.18
2018-04-11T20:25:19.081Z,72.58
2018-04-11T20:27:47.966Z,72.81
2018-04-11T20:30:15.964Z,72.75
2018-04-11T20:32:43.524Z,73.14
2018-04-11T20:35:11.467Z,73.71
2018-04-11T20:37:39.610Z,74.05
2018-04-11T20:40:07.145Z,74.01
2018-04-11T20:42:35.039Z,74.11
2018-04-11T20:45:02.854Z,74.02
2018-04-11T20:47:33.008Z,74.27
2018-04-11T20:50:00.764Z,74.34
2018-04-11T20:52:28.395Z,74.64
2018-04-11T20:54:55.970Z,74.37
2018-04-11T20:57:23.520Z,74.45
2018-04-11T20:59:51.045Z,74.92
2018-04-11T21:02:18.618Z,75.38
2018-04-11T21:04:46.163Z,76.05
2018-04-11T21:07:14.251Z,76.13
2018-04-11T21:09:41.979Z,76.56
2018-04-11T21:12:09.545Z,76.41
2018-04-11T21:14:37.079Z,76.28
2018-04-11T21:17:04.895Z,76.54
2018-04-11T21:19:34.112Z,76.60
2018-04-11T21:22:01.693Z,76.54
2018-04-11T21:24:30.278Z,76.68
2018-04-11T21:26:57.939Z,77.19
2018-04-11T21:29:26.873Z,76.95
2018-04-11T21:31:54.448Z,76.95
2018-04-11T21:34:22.139Z,77.02
2018-04-11T21:36:49.705Z,77.21
2018-04-11T21:39:17.844Z,77.33
2018-04-11T21:41:45.522Z,77.51
2018-04-11T21:44:13.082Z,77.26
2018-04-11T21:46:40.677Z,77.26
2018-04-11T21:49:08.372Z,77.24
2018-04-11T21:51:35.954Z,77.67
2018-04-11T21:54:03.585Z,77.66
2018-04-11T21:56:31.161Z,77.86
2018-04-11T21:58:58.693Z,77.81
2018-04-11T22:01:29.023Z,77.98
2018-04-11T22:03:56.913Z,77.54
2018-04-11T22:06:27.941Z,77.87
2018-04-11T22:08:55.578Z,76.79
2018-04-11T22:11:23.171Z,76.79
2018-04-11T22:13:50.726Z,76.72
2018-04-11T22:16:20.063Z,77.28
2018-04-11T22:18:49.301Z,76.91
2018-04-11T22:21:17.500Z,76.60
2018-04-11T22:23:46.479Z,76.82
2018-04-11T22:26:14.050Z,76.68
2018-04-11T22:28:44.320Z,76.93
2018-04-11T22:31:12.537Z,76.62
2018-04-11T22:33:42.040Z,76.29
2018-04-11T22:36:09.582Z,75.60
2018-04-11T22:38:40.770Z,75.09
2018-04-11T22:41:08.909Z,75.58
2018-04-11T22:43:38.272Z,75.80
2018-04-11T22:46:05.891Z,76.18
2018-04-11T22:48:35.414Z,76.18
2018-04-11T22:51:02.960Z,75.82
2018-04-11T22:53:34.289Z,75.86
2018-04-11T22:56:04.121Z,76.32
2018-04-11T22:58:32.247Z,77.12
2018-04-11T23:00:59.957Z,77.70
2018-04-11T23:03:27.577Z,77.82
2018-04-11T23:05:56.819Z,78.66
2018-04-11T23:08:26.093Z,78.89
2018-04-11T23:10:53.700Z,79.69
2018-04-11T23:13:21.429Z,79.64
2018-04-11T23:15:51.436Z,79.78
2018-04-11T23:18:20.291Z,79.25
2018-04-11T23:20:48.158Z,78.74
2018-04-11T23:26:06.078Z,79.62
2018-04-11T23:28:33.613Z,79.76
2018-04-11T23:31:01.161Z,80.33
2018-04-11T23:33:28.793Z,80.44
2018-04-11T23:35:56.396Z,80.56
2018-04-11T23:38:24.081Z,80.79
2018-04-11T23:40:51.633Z,81.57
2018-04-11T23:43:19.537Z,81.89
2018-04-11T23:45:47.739Z,81.60
2018-04-11T23:48:15.295Z,81.26
2018-04-11T23:50:43.141Z,80.89
2018-04-11T23:53:11.714Z,80.91
2018-04-11T23:55:41.914Z,81.26
2018-04-11T23:58:09.690Z,81.59
